CheckWX is a tool to help pilots better visualize weather data.  It is not intended as a substitute for an official pre-flight weather briefing.

21:04:09 UTC

KAPC METAR
Napa County Airport
Napa, California, USA
Current

10 mins ago

KAPC 232054Z 20014KT 10SM SCT050 21/13 A2980 RMK AO2 SLP083 T02060133 51002
Observed
May-23 @ 20:54 UTC
Wind
  • 200° at 14 KTS
Visibility
10 SM
Flight Rules
VFR
Cloud Levels
  • Scattered at 5,000' AGL
Temperature
21°C / 70°F
Dewpoint
13°C / 55°F
Humidity
60%
Altimeter
29.8" Hg
Pressure
1009.12 hPa
Previous

1 hour ago

KAPC 231954Z 20014KT 10SM CLR 21/14 A2980 RMK AO2 SLP083 T02060139
Observed
May-23 @ 19:54 UTC
Wind
  • 200° at 14 KTS
Visibility
10 SM
Flight Rules
VFR
Cloud Levels
  • Clear skies
Temperature
21°C / 70°F
Dewpoint
14°C / 57°F
Humidity
64%
Altimeter
29.8" Hg
Pressure
1009.12 hPa
Previous

2 hours ago

KAPC 231854Z 21013KT 10SM SCT038 20/13 A2980 RMK AO2 SLP081 T02000133
Observed
May-23 @ 18:54 UTC
Wind
  • 210° at 13 KTS
Visibility
10 SM
Flight Rules
VFR
Cloud Levels
  • Scattered at 3,800' AGL
Temperature
20°C / 68°F
Dewpoint
13°C / 55°F
Humidity
64%
Altimeter
29.8" Hg
Pressure
1009.12 hPa